createdAt,value
2022-10-17T00:03:54.012Z,24.92
2022-10-17T00:06:27.644Z,27.33
2022-10-17T00:09:05.860Z,26.67
2022-10-17T00:11:39.577Z,26.73
2022-10-17T00:14:13.136Z,26.27
2022-10-17T00:19:21.565Z,28.27
2022-10-17T00:21:55.066Z,26.88
2022-10-17T00:27:01.769Z,26.75
2022-10-17T00:32:11.093Z,28.63
2022-10-17T00:34:53.835Z,31.42
2022-10-17T00:37:31.341Z,27.35
2022-10-17T00:40:10.686Z,30.13
2022-10-17T00:42:47.026Z,30.83
2022-10-17T00:45:29.078Z,27.98
2022-10-17T00:48:06.753Z,27.13
2022-10-17T00:50:47.783Z,23.40
2022-10-17T00:53:21.465Z,29.63
2022-10-17T00:55:55.887Z,31.02
2022-10-17T00:58:29.423Z,30.23
2022-10-17T01:03:37.672Z,28.92
2022-10-17T01:08:46.175Z,34.58
2022-10-17T01:11:31.508Z,28.25
2022-10-17T01:14:11.591Z,30.75
2022-10-17T01:16:54.549Z,25.85
2022-10-17T01:19:45.975Z,28.13
2022-10-17T01:22:28.130Z,28.20
2022-10-17T01:25:28.812Z,30.40
2022-10-17T01:28:24.279Z,28.80
2022-10-17T01:31:08.026Z,30.15
2022-10-17T01:33:49.837Z,36.58
2022-10-17T01:36:32.296Z,33.90
2022-10-17T01:39:15.862Z,35.45
2022-10-17T01:41:59.707Z,27.83
2022-10-17T01:44:40.637Z,28.30
2022-10-17T01:47:19.993Z,29.58
2022-10-17T01:49:58.813Z,34.53
2022-10-17T01:52:38.583Z,29.75
2022-10-17T01:55:15.444Z,32.58
2022-10-17T01:57:52.890Z,33.33
2022-10-17T02:00:28.988Z,31.98
2022-10-17T02:03:08.450Z,33.35
2022-10-17T02:05:45.201Z,33.03
2022-10-17T02:08:27.631Z,33.28
2022-10-17T02:11:04.968Z,33.90
2022-10-17T02:13:57.949Z,34.08
2022-10-17T02:16:39.013Z,34.05
2022-10-17T02:19:38.136Z,34.35
2022-10-17T02:22:23.400Z,34.03
2022-10-17T02:25:04.167Z,32.53
2022-10-17T02:27:47.866Z,37.40
2022-10-17T02:30:30.533Z,33.03
2022-10-17T02:33:09.013Z,33.07
2022-10-17T02:35:48.613Z,32.05
2022-10-17T02:38:24.374Z,37.47
2022-10-17T02:40:58.039Z,38.55
2022-10-17T02:46:06.240Z,37.22
2022-10-17T02:48:44.350Z,37.38
2022-10-17T02:51:26.841Z,38.60
2022-10-17T02:54:09.635Z,36.28
2022-10-17T02:56:53.560Z,33.70
2022-10-17T02:59:32.029Z,35.95
2022-10-17T03:02:06.436Z,35.53
2022-10-17T03:04:41.229Z,36.88
2022-10-17T03:07:17.873Z,38.70
2022-10-17T03:09:51.430Z,37.30
2022-10-17T03:15:01.662Z,47.45
2022-10-17T03:17:37.067Z,34.40
2022-10-17T03:20:11.223Z,36.92
2022-10-17T03:22:46.143Z,33.50
2022-10-17T03:25:19.583Z,37.90
2022-10-17T03:27:55.030Z,38.55
2022-10-17T03:33:02.283Z,39.37
2022-10-17T03:35:35.760Z,35.25
2022-10-17T03:40:44.120Z,35.15
2022-10-17T03:43:18.085Z,37.88
2022-10-17T03:51:03.946Z,42.53
2022-10-17T03:53:41.292Z,40.92
2022-10-17T03:56:16.822Z,35.70
2022-10-17T03:58:52.471Z,38.83
2022-10-17T04:03:59.565Z,44.33
2022-10-17T04:06:37.223Z,38.53
2022-10-17T04:09:13.079Z,38.03
2022-10-17T04:12:16.017Z,39.90
2022-10-17T04:14:50.343Z,39.08
2022-10-17T04:17:24.220Z,37.80
2022-10-17T04:22:31.393Z,39.70
2022-10-17T04:25:07.297Z,41.25
2022-10-17T04:27:45.156Z,40.75
2022-10-17T04:30:19.994Z,40.13
2022-10-17T04:32:53.521Z,42.85
2022-10-17T04:35:28.857Z,39.17
2022-10-17T04:38:08.726Z,38.88
2022-10-17T04:40:43.887Z,38.47
2022-10-17T04:43:17.963Z,37.72
2022-10-17T04:45:52.394Z,39.72
2022-10-17T04:51:00.826Z,39.95
2022-10-17T04:53:46.715Z,39.47
2022-10-17T04:56:25.581Z,44.63
2022-10-17T04:59:00.819Z,39.20
2022-10-17T05:01:34.790Z,45.13
2022-10-17T05:06:42.141Z,38.67
2022-10-17T05:09:35.739Z,41.30
2022-10-17T05:12:10.841Z,43.28
2022-10-17T05:14:50.861Z,43.03
2022-10-17T05:17:25.216Z,41.75
2022-10-17T05:22:39.656Z,41.88
2022-10-17T05:25:20.003Z,40.25
2022-10-17T05:27:55.021Z,41.92
2022-10-17T05:30:31.438Z,42.70
2022-10-17T05:33:08.052Z,38.63
2022-10-17T05:38:15.045Z,45.92
2022-10-17T05:40:50.559Z,42.63
2022-10-17T05:43:26.412Z,39.67
2022-10-17T05:46:00.181Z,48.00
2022-10-17T05:48:34.734Z,39.88
2022-10-17T05:51:10.116Z,41.53
2022-10-17T05:53:45.425Z,46.22
2022-10-17T05:56:24.326Z,44.42
2022-10-17T05:59:01.093Z,48.70
2022-10-17T06:01:46.147Z,45.97
2022-10-17T06:04:19.886Z,42.42
2022-10-17T06:06:53.714Z,46.53
2022-10-17T06:09:27.464Z,42.55
2022-10-17T06:12:01.964Z,49.97
2022-10-17T06:14:38.074Z,41.05
2022-10-17T06:17:20.869Z,40.45
2022-10-17T06:19:58.386Z,39.75
2022-10-17T06:22:32.491Z,40.33
2022-10-17T06:25:08.533Z,41.10
2022-10-17T06:27:42.310Z,47.75
2022-10-17T06:30:23.854Z,40.28
2022-10-17T06:32:59.244Z,39.08
2022-10-17T06:35:33.054Z,36.08
2022-10-17T06:38:07.021Z,37.78
2022-10-17T06:40:44.644Z,34.65
2022-10-17T06:43:21.417Z,35.22
2022-10-17T06:46:26.956Z,45.40
2022-10-17T06:49:04.996Z,34.50
2022-10-17T06:51:56.302Z,34.67
2022-10-17T06:54:53.262Z,31.88
2022-10-17T06:57:41.263Z,34.20
2022-10-17T07:00:33.778Z,34.53
2022-10-17T07:03:10.223Z,33.95
2022-10-17T07:05:43.985Z,32.20
2022-10-17T07:08:17.605Z,35.58
2022-10-17T07:10:52.091Z,35.03
2022-10-17T07:13:27.044Z,32.30
2022-10-17T07:16:02.006Z,33.63
2022-10-17T07:18:44.810Z,28.67
2022-10-17T07:21:18.867Z,26.27
2022-10-17T07:23:55.723Z,28.13
2022-10-17T07:26:29.300Z,26.98
2022-10-17T07:29:06.602Z,27.88
2022-10-17T07:31:49.056Z,23.35
2022-10-17T07:34:27.605Z,23.45
2022-10-17T07:37:01.660Z,22.05
2022-10-17T07:39:35.893Z,24.77
2022-10-17T07:42:09.788Z,25.60
2022-10-17T07:44:44.279Z,22.13
2022-10-17T07:47:19.278Z,21.77
2022-10-17T07:49:55.429Z,21.05
2022-10-17T07:52:29.663Z,23.50
2022-10-17T07:55:03.435Z,22.98
2022-10-17T07:57:37.058Z,20.60
2022-10-17T08:00:12.587Z,23.05
2022-10-17T08:02:46.120Z,22.83
2022-10-17T08:05:21.255Z,18.60
2022-10-17T08:07:54.912Z,20.88
2022-10-17T08:10:29.794Z,19.30
2022-10-17T08:13:03.705Z,27.02
2022-10-17T08:15:40.040Z,18.92
2022-10-17T08:18:14.648Z,18.38
2022-10-17T08:20:49.538Z,18.77
2022-10-17T08:23:23.318Z,18.25
2022-10-17T08:25:59.953Z,20.17
2022-10-17T08:28:36.710Z,20.85
2022-10-17T08:31:12.318Z,17.35
2022-10-17T08:33:46.561Z,18.67
2022-10-17T08:36:22.806Z,18.00
2022-10-17T08:38:56.694Z,22.65
2022-10-17T08:41:45.519Z,16.38
2022-10-17T08:44:31.365Z,17.65
2022-10-17T08:47:10.172Z,16.35
2022-10-17T08:49:49.019Z,16.38
2022-10-17T08:52:41.379Z,16.45
2022-10-17T08:57:56.716Z,16.80
2022-10-17T09:00:32.367Z,16.90
2022-10-17T09:03:18.929Z,15.48
2022-10-17T09:05:57.728Z,14.23
2022-10-17T09:08:42.135Z,16.98
2022-10-17T09:11:30.549Z,14.10
2022-10-17T09:14:17.630Z,17.00
2022-10-17T09:17:13.644Z,16.85
2022-10-17T09:20:03.639Z,16.27
2022-10-17T09:22:42.813Z,13.95
2022-10-17T09:25:20.566Z,13.93
2022-10-17T09:28:08.168Z,16.60
2022-10-17T09:30:45.836Z,15.75
2022-10-17T09:33:34.549Z,17.08
2022-10-17T09:36:14.570Z,17.48
2022-10-17T09:38:52.286Z,19.92
2022-10-17T09:41:44.941Z,18.75
2022-10-17T09:44:23.060Z,16.88
2022-10-17T09:47:14.172Z,19.33
2022-10-17T09:49:49.045Z,16.33
2022-10-17T09:52:28.935Z,18.50
2022-10-17T09:55:07.739Z,17.02
2022-10-17T09:57:57.576Z,14.05
2022-10-17T10:00:34.441Z,15.73
2022-10-17T10:03:16.820Z,17.77
2022-10-17T10:06:05.891Z,14.40
2022-10-17T10:08:51.095Z,15.52
2022-10-17T10:11:27.599Z,16.77
2022-10-17T10:14:13.710Z,15.50
2022-10-17T10:16:50.054Z,19.65
2022-10-17T10:19:31.618Z,17.05
2022-10-17T10:22:07.854Z,20.05
2022-10-17T10:24:41.774Z,23.77
2022-10-17T10:27:19.862Z,18.60
2022-10-17T10:29:55.264Z,15.85
2022-10-17T10:32:30.912Z,19.60
2022-10-17T10:35:08.985Z,18.92
2022-10-17T10:37:47.999Z,17.20
2022-10-17T10:40:25.133Z,18.08
2022-10-17T10:43:05.227Z,15.00
2022-10-17T10:45:48.975Z,22.10
2022-10-17T10:48:24.671Z,16.02
2022-10-17T10:51:01.901Z,17.48
2022-10-17T10:53:44.379Z,17.00
2022-10-17T10:56:22.081Z,14.98
2022-10-17T10:59:00.082Z,18.23
2022-10-17T11:01:48.005Z,14.88
2022-10-17T11:04:28.579Z,18.80
2022-10-17T11:07:12.827Z,17.05
2022-10-17T11:09:56.567Z,13.55
2022-10-17T11:12:36.090Z,17.33
2022-10-17T11:15:20.761Z,14.00
2022-10-17T11:18:01.144Z,14.63
2022-10-17T11:20:51.772Z,14.13
2022-10-17T11:23:31.784Z,17.85
2022-10-17T11:26:20.052Z,17.10
2022-10-17T11:28:54.512Z,19.27
2022-10-17T11:31:39.652Z,17.77
2022-10-17T11:34:23.956Z,17.75
2022-10-17T11:37:24.803Z,17.95
2022-10-17T11:40:07.775Z,17.92
2022-10-17T11:42:47.511Z,18.83
2022-10-17T11:45:23.896Z,25.23
2022-10-17T11:52:56.414Z,17.00
2022-10-17T11:55:34.408Z,17.55
2022-10-17T12:05:02.028Z,13.05
2022-10-17T12:14:45.239Z,15.00
2022-10-17T12:17:33.208Z,20.90
2022-10-17T12:28:45.043Z,18.13
2022-10-17T12:35:25.784Z,15.93
2022-10-17T12:46:11.326Z,16.60
2022-10-17T12:56:22.395Z,20.88
2022-10-17T13:07:21.087Z,22.00
2022-10-17T13:09:54.910Z,23.08
2022-10-17T13:12:57.170Z,15.75
2022-10-17T13:15:36.179Z,22.23
2022-10-17T13:18:21.158Z,20.35
2022-10-17T13:21:09.787Z,17.63
2022-10-17T13:23:50.907Z,17.88
2022-10-17T13:26:26.014Z,16.27
2022-10-17T13:29:04.149Z,20.08
2022-10-17T13:31:40.062Z,17.10
2022-10-17T13:34:18.941Z,23.85
2022-10-17T13:36:54.857Z,18.75
2022-10-17T13:39:58.325Z,20.70
2022-10-17T13:42:40.405Z,21.23
2022-10-17T13:45:20.653Z,19.92
2022-10-17T13:47:56.674Z,21.15
2022-10-17T13:50:44.051Z,24.02
2022-10-17T13:53:22.210Z,17.73
2022-10-17T13:56:26.290Z,19.50
2022-10-17T13:58:59.327Z,18.42
2022-10-17T14:01:33.290Z,18.50
2022-10-17T14:04:10.445Z,19.77
2022-10-17T14:06:52.312Z,24.52
2022-10-17T14:09:28.313Z,21.13
2022-10-17T14:12:12.978Z,17.77
2022-10-17T14:15:10.499Z,24.33
2022-10-17T14:17:46.013Z,23.55
2022-10-17T14:23:38.005Z,20.35
2022-10-17T14:26:18.027Z,25.55
2022-10-17T14:29:08.420Z,20.30
2022-10-17T14:31:41.951Z,22.02
2022-10-17T14:34:28.021Z,23.70
2022-10-17T14:37:19.819Z,18.77
2022-10-17T14:39:55.420Z,22.20
2022-10-17T14:42:29.200Z,24.42
2022-10-17T14:45:08.797Z,22.20
2022-10-17T14:47:44.212Z,22.42
2022-10-17T14:50:24.729Z,20.00
2022-10-17T14:53:05.062Z,24.52
2022-10-17T14:55:44.744Z,25.15
2022-10-17T14:58:36.449Z,20.48
2022-10-17T15:01:20.620Z,23.02
2022-10-17T15:03:54.624Z,22.35
2022-10-17T15:06:30.220Z,22.40
2022-10-17T15:09:04.749Z,29.55
2022-10-17T15:11:38.445Z,32.88
2022-10-17T15:14:12.982Z,29.80
2022-10-17T15:16:49.236Z,25.08
2022-10-17T15:19:22.895Z,31.02
2022-10-17T15:21:56.495Z,30.40
2022-10-17T15:24:30.094Z,29.40
2022-10-17T15:27:03.759Z,26.02
2022-10-17T15:29:37.294Z,34.65
2022-10-17T15:32:12.704Z,26.75
2022-10-17T15:34:46.482Z,26.40
2022-10-17T15:37:23.570Z,29.95
2022-10-17T15:39:57.230Z,31.92
2022-10-17T15:42:31.971Z,28.10
2022-10-17T15:47:54.121Z,30.80
2022-10-17T15:50:31.245Z,30.25
2022-10-17T15:53:09.602Z,34.25
2022-10-17T15:55:43.207Z,24.88
2022-10-17T15:58:17.364Z,25.83
2022-10-17T16:00:51.040Z,25.90
2022-10-17T16:03:26.038Z,25.02
2022-10-17T16:05:59.688Z,27.13
2022-10-17T16:08:33.234Z,25.45
2022-10-17T16:11:07.038Z,25.75
2022-10-17T16:13:41.694Z,29.67
2022-10-17T16:16:15.344Z,28.13
2022-10-17T16:18:50.853Z,26.90
2022-10-17T16:21:27.314Z,28.13
2022-10-17T16:24:01.472Z,22.33
2022-10-17T16:26:35.142Z,25.55
2022-10-17T16:29:10.209Z,21.85
2022-10-17T16:31:46.004Z,29.15
2022-10-17T16:34:21.076Z,31.42
2022-10-17T16:36:54.624Z,28.70
2022-10-17T16:42:01.971Z,31.80
2022-10-17T16:44:35.752Z,34.22
2022-10-17T16:47:10.020Z,35.03
2022-10-17T16:49:45.541Z,34.67
2022-10-17T16:52:19.152Z,35.08
2022-10-17T16:54:53.397Z,33.08
2022-10-17T16:57:27.128Z,37.58
2022-10-17T17:00:00.981Z,35.45
2022-10-17T17:02:34.867Z,33.22
2022-10-17T17:05:10.636Z,40.78
2022-10-17T17:07:44.350Z,33.85
2022-10-17T17:10:18.229Z,33.33
2022-10-17T17:12:51.853Z,34.13
2022-10-17T17:15:25.626Z,36.72
2022-10-17T17:18:04.036Z,37.15
2022-10-17T17:20:40.628Z,32.95
2022-10-17T17:23:16.000Z,40.92
2022-10-17T17:25:50.870Z,40.75
2022-10-17T17:28:26.223Z,43.00
2022-10-17T17:30:59.932Z,42.55
2022-10-17T17:33:33.935Z,44.92
2022-10-17T17:36:11.601Z,38.55
2022-10-17T17:38:46.143Z,46.03
2022-10-17T17:41:21.297Z,36.50
2022-10-17T17:43:55.985Z,36.47
2022-10-17T17:46:29.671Z,38.33
2022-10-17T17:49:03.329Z,38.92
2022-10-17T17:51:41.585Z,33.35
2022-10-17T17:54:15.792Z,34.75
2022-10-17T17:56:51.738Z,36.75
2022-10-17T17:59:25.439Z,34.38
2022-10-17T18:01:59.087Z,39.58
2022-10-17T18:04:33.200Z,39.72
2022-10-17T18:07:08.174Z,43.13
2022-10-17T18:09:41.928Z,44.65
2022-10-17T18:12:15.639Z,47.38
2022-10-17T18:14:49.765Z,42.28
2022-10-17T18:17:26.983Z,45.13
2022-10-17T18:20:00.616Z,40.97
2022-10-17T18:22:37.224Z,30.75
2022-10-17T18:25:11.232Z,32.47
2022-10-17T18:27:44.863Z,33.38
2022-10-17T18:30:25.476Z,32.67
2022-10-17T18:33:01.102Z,31.15
2022-10-17T18:35:36.559Z,29.90
2022-10-17T18:38:15.334Z,33.70
2022-10-17T18:40:51.259Z,32.60
2022-10-17T18:46:10.850Z,32.33
2022-10-17T18:48:49.136Z,38.03
2022-10-17T18:51:32.768Z,38.08
2022-10-17T18:54:12.637Z,34.03
2022-10-17T18:56:46.398Z,34.85
2022-10-17T18:59:20.927Z,34.58
2022-10-17T19:01:54.738Z,36.35
2022-10-17T19:04:28.797Z,35.97
2022-10-17T19:07:02.431Z,38.97
2022-10-17T19:09:37.606Z,39.67
2022-10-17T19:12:11.331Z,33.17
2022-10-17T19:14:45.035Z,35.65
2022-10-17T19:17:18.736Z,32.38
2022-10-17T19:19:55.945Z,34.35
2022-10-17T19:22:33.308Z,30.83
2022-10-17T19:25:08.943Z,36.30
2022-10-17T19:27:45.345Z,37.38
2022-10-17T19:30:21.532Z,35.03
2022-10-17T19:32:55.171Z,33.70
2022-10-17T19:35:28.729Z,37.55
2022-10-17T19:38:02.273Z,28.05
2022-10-17T19:43:17.047Z,31.30
2022-10-17T19:48:33.428Z,25.80
2022-10-17T19:51:08.044Z,34.72
2022-10-17T19:53:41.686Z,28.30
2022-10-17T19:56:18.741Z,25.23
2022-10-17T19:58:54.180Z,36.58
2022-10-17T20:01:30.017Z,24.08
2022-10-17T20:04:04.137Z,22.67
2022-10-17T20:06:38.104Z,25.75
2022-10-17T20:09:18.068Z,25.70
2022-10-17T20:11:53.697Z,22.75
2022-10-17T20:14:27.382Z,25.67
2022-10-17T20:17:01.062Z,27.30
2022-10-17T20:19:35.070Z,22.38
2022-10-17T20:22:08.633Z,27.15
2022-10-17T20:27:16.767Z,24.47
2022-10-17T20:29:50.398Z,23.13
2022-10-17T20:32:24.065Z,24.90
2022-10-17T20:34:57.659Z,23.42
2022-10-17T20:40:33.041Z,22.48
2022-10-17T20:43:07.670Z,25.65
2022-10-17T20:45:51.188Z,26.48
2022-10-17T20:48:25.641Z,21.92
2022-10-17T20:51:07.481Z,21.55
2022-10-17T20:53:44.061Z,24.50
2022-10-17T20:56:21.466Z,25.48
2022-10-17T20:59:01.574Z,26.30
2022-10-17T21:01:37.406Z,30.38
2022-10-17T21:04:40.327Z,20.13
2022-10-17T21:07:04.734Z,23.70
2022-10-17T21:09:46.306Z,23.85
2022-10-17T21:12:31.341Z,21.08
2022-10-17T21:15:14.771Z,23.75
2022-10-17T21:17:48.310Z,19.23
2022-10-17T21:22:55.579Z,20.38
2022-10-17T21:25:33.033Z,20.50
2022-10-17T21:28:06.770Z,19.40
2022-10-17T21:30:43.970Z,17.33
2022-10-17T21:33:17.487Z,17.90
2022-10-17T21:38:31.667Z,21.48
2022-10-17T21:41:06.074Z,20.20
2022-10-17T21:43:39.825Z,17.52
2022-10-17T21:46:16.660Z,16.65
2022-10-17T21:48:51.924Z,20.23
2022-10-17T21:51:28.652Z,22.40
2022-10-17T21:54:06.060Z,20.80
2022-10-17T21:56:39.634Z,21.50
2022-10-17T22:01:48.173Z,20.73
2022-10-17T22:04:21.863Z,15.27
2022-10-17T22:06:55.371Z,19.00
2022-10-17T22:12:02.217Z,16.40
2022-10-17T22:14:35.791Z,18.95
2022-10-17T22:17:11.052Z,21.13
2022-10-17T22:19:44.549Z,16.52
2022-10-17T22:24:51.243Z,19.17
2022-10-17T22:29:57.937Z,18.77
2022-10-17T22:35:06.782Z,20.05
2022-10-17T22:37:40.483Z,14.18
2022-10-17T22:40:14.666Z,20.00
2022-10-17T22:42:48.300Z,18.50
2022-10-17T22:45:21.802Z,16.25
2022-10-17T22:47:57.077Z,16.80
2022-10-17T22:50:30.739Z,14.40
2022-10-17T22:53:04.445Z,14.93
2022-10-17T22:55:42.026Z,15.65
2022-10-17T22:58:18.164Z,15.65
2022-10-17T23:00:52.791Z,14.82
2022-10-17T23:03:31.890Z,14.55
2022-10-17T23:06:05.546Z,16.08
2022-10-17T23:08:39.411Z,18.55
2022-10-17T23:11:13.220Z,18.23
2022-10-17T23:13:46.723Z,14.30
2022-10-17T23:19:00.357Z,13.38
2022-10-17T23:21:33.848Z,14.38
2022-10-17T23:24:07.969Z,19.20
2022-10-17T23:26:42.626Z,13.82
2022-10-17T23:29:16.100Z,13.23
2022-10-17T23:31:49.946Z,14.43
2022-10-17T23:34:24.896Z,16.42
2022-10-17T23:36:58.744Z,17.58
2022-10-17T23:39:32.303Z,16.85
2022-10-17T23:44:41.002Z,12.23
2022-10-17T23:47:14.488Z,17.23
2022-10-17T23:49:49.471Z,16.42
2022-10-17T23:52:22.994Z,13.27
2022-10-17T23:54:56.470Z,14.95
2022-10-17T23:57:30.236Z,15.85
